カーディフ の空港の天気 - METARとTAF

カーディフ空港 ( EGFF / CWL ) - イギリス カーディフ
飛行場実況気象(Metar)
観測時間07/18 13:20 BST (07/18 12:20 UTC)
風向・風速西 7m/s
視程10km以上
天気現象
なし
気温19℃
湿度64%
気圧1012hPa
METAREGFF 181220Z AUTO 27013KT 9999 NCD 19/12 Q1012
過去の天気等 Google飛行場航空写真 Wunderground天気予報

過去48時間のMETAR

飛行場予報(TAF)
発表時間: 7/18 11:57 BST (7/18 10:57 UTC)
予報対象時間: 18日13時 BST ~ 19日13時 BST
風向・風速西 6m/s
視程10km以上
全天の4割程度の雲 雲底高度 1070m
19日1時 BST ~ 19日4時 BST に徐々に
風向・風速南南西 3m/s
19日4時 BST ~ 19日7時 BST に徐々に
風向・風速南南東 6m/s
19日6時 BST ~ 19日13時 BST に一時的に
視程6000m
天気現象
全天の8割程度の雲 雲底高度 430m
19日7時 BST ~ 19日11時 BST に 確率 30% で一時的に
視程3000m
天気現象強い雨
全天の8割程度の雲 雲底高度 240m
19日10時 BST ~ 19日13時 BST に徐々に
風向・風速西 6m/s
19日10時 BST ~ 19日13時 BST に 確率 30% で一時的に
風向・風速西 8m/s 瞬間風速 13m/s
TAF EGFF 181057Z 1812/1912 28012KT 9999 SCT035
BECMG 1900/1903 21006KT
BECMG 1903/1906 15012KT
TEMPO 1905/1912 6000 RA BKN014
PROB30 TEMPO 1906/1910 3000 +RA BKN008
BECMG 1909/1912 26012KT
PROB30 TEMPO 1909/1912 27015G25KT